INFORMACIÓN METAR y TAF
METAR FOR EFIV
ADDS - METARS form results

(0901 UTC 15 April 2021)
Data provider http://aviationweather.gov/metar/data/
 
METAR text: EFIV 150850Z AUTO 27014KT 240V310 CAVOK 05/M03 Q1019
Conditions at: EFIV (IVALO , FI) observed 0850 UTC 15 April 2021
Temperature: 5.0°C (41°F)
Dewpoint: -3.0°C (27°F) [RH = 56%]
Pressure (altimeter): 30.09 inches Hg (1019.0 mb)
Winds: from the W (270 degrees) at 16 MPH (14 knots; 7.2 m/s)
Visibility: 6 or more miles (10+ km)
Ceiling: ceiling and visibility are OK
Clouds: unknown
Weather: no significant weather observed at this time

METAR text: EFIV 150820Z 27013KT 230V290 CAVOK 05/M03 Q1019
Conditions at: EFIV (IVALO , FI) observed 0820 UTC 15 April 2021
Temperature: 5.0°C (41°F)
Dewpoint: -3.0°C (27°F) [RH = 56%]
Pressure (altimeter): 30.09 inches Hg (1019.0 mb)
Winds: from the W (270 degrees) at 15 MPH (13 knots; 6.7 m/s)
Visibility: 6 or more miles (10+ km)
Ceiling: ceiling and visibility are OK
Clouds: unknown
Weather: no significant weather observed at this time

Forecast for: AMD
Text: TAF AMD EFIV 150820Z 1508/1509 25009KT 9999 OVC040
Forecast period: 0800 to 0900 UTC 15 April 2021
Forecast type: FROM: standard forecast or significant change
Winds: from the WSW (250 degrees) at 10 MPH (9 knots; 4.6 m/s)
Visibility: 6 or more miles (10+ km)
Ceiling: 4000 feet AGL
Clouds: overcast cloud deck at 4000 feet AGL
Weather: no significant weather forecast for this period

 MAPA DE AEROPUERTO

 INFORMACIÓN DE PISTA
Pista 04 Longitud 8199 ft Ancho 148 ft
Elevación 480 ft Umbral desplazado 0 ft Rumbo de pista 47
Pista 22 Longitud 8199 ft Ancho 148 ft
Elevación 463 ft Umbral desplazado 0 ft Rumbo de pista 227
Pista 08 Longitud 2625 ft Ancho 148 ft
Elevación 475 ft Umbral desplazado 0 ft Rumbo de pista 92
Pista 26 Longitud 2625 ft Ancho 148 ft
Elevación 468 ft Umbral desplazado 0 ft Rumbo de pista 272

 FRECUANCIAS DEL AEROPUERTO
Tipo ATIS Nombre ATIS Frecuencia 123.2 MHZ
Tipo TWR Nombre TWR Frecuencia 118 MHZ

 RADIO AYUDAS DEL AEROPUERTO
Tipo NDB Nombre Akujarvi Frecuencia 432 KHZ



Powered by Virtual Airlines Manager [v2.6.2]